createdAt,value
2022-12-23T00:03:41.574Z,6.70
2022-12-23T00:08:44.772Z,6.70
2022-12-23T00:14:06.195Z,6.60
2022-12-23T00:19:08.650Z,6.70
2022-12-23T00:24:12.018Z,6.70
2022-12-23T00:29:14.604Z,6.80
2022-12-23T00:34:17.411Z,6.80
2022-12-23T00:39:38.288Z,6.90
2022-12-23T00:44:40.920Z,7.00
2022-12-23T00:49:43.472Z,7.10
2022-12-23T00:54:46.057Z,7.10
2022-12-23T00:59:48.580Z,7.10
2022-12-23T01:05:09.561Z,7.00
2022-12-23T01:10:12.247Z,7.10
2022-12-23T01:15:14.740Z,7.00
2022-12-23T01:20:17.471Z,7.10
2022-12-23T01:25:19.928Z,7.00
2022-12-23T01:30:22.448Z,9.20
2022-12-23T01:35:25.012Z,7.00
2022-12-23T01:40:27.493Z,7.00
2022-12-23T01:45:32.545Z,6.90
2022-12-23T01:50:37.251Z,7.00
2022-12-23T01:55:49.488Z,6.90
2022-12-23T02:01:12.799Z,7.00
2022-12-23T02:06:41.472Z,7.00
2022-12-23T02:11:43.830Z,7.00
2022-12-23T02:16:55.127Z,6.90
2022-12-23T02:22:13.320Z,6.70
2022-12-23T02:27:19.003Z,6.60
2022-12-23T02:32:30.859Z,6.50
2022-12-23T02:37:51.827Z,6.50
2022-12-23T02:43:04.304Z,6.50
2022-12-23T02:48:27.613Z,6.40
2022-12-23T02:53:35.317Z,6.40
2022-12-23T02:58:46.056Z,6.50
2022-12-23T03:03:50.905Z,6.30
2022-12-23T03:08:57.632Z,6.30
2022-12-23T03:14:25.104Z,6.20
2022-12-23T03:19:39.304Z,6.00
2022-12-23T03:24:54.489Z,5.70
2022-12-23T03:30:28.929Z,5.30
2022-12-23T03:35:36.870Z,5.10
2022-12-23T03:40:43.598Z,5.30
2022-12-23T03:45:52.647Z,5.40
2022-12-23T03:51:01.198Z,5.50
2022-12-23T03:56:09.164Z,5.60
2022-12-23T04:01:19.127Z,5.70
2022-12-23T04:06:23.884Z,5.40
2022-12-23T04:11:26.491Z,4.90
2022-12-23T04:16:29.914Z,4.70
2022-12-23T04:21:32.485Z,4.40
2022-12-23T04:26:35.020Z,4.40
2022-12-23T04:31:37.728Z,4.60
2022-12-23T04:36:40.255Z,4.70
2022-12-23T04:41:43.036Z,4.90
2022-12-23T04:46:45.701Z,5.00
2022-12-23T04:51:48.286Z,4.80
2022-12-23T04:56:50.900Z,4.70
2022-12-23T05:01:53.761Z,4.80
2022-12-23T05:06:56.471Z,4.60
2022-12-23T05:11:58.943Z,4.80
2022-12-23T05:17:07.149Z,5.00
2022-12-23T05:22:10.345Z,5.00
2022-12-23T05:27:12.886Z,5.20
2022-12-23T05:32:15.427Z,5.10
2022-12-23T05:37:17.881Z,5.00
2022-12-23T05:42:20.452Z,5.00
2022-12-23T05:47:22.870Z,5.10
2022-12-23T05:52:25.564Z,5.30
2022-12-23T05:57:28.095Z,5.30
2022-12-23T06:02:30.952Z,5.40
2022-12-23T06:07:34.112Z,5.40
2022-12-23T06:12:37.369Z,5.20
2022-12-23T06:17:40.041Z,5.30
2022-12-23T06:22:43.511Z,5.40
2022-12-23T06:27:46.515Z,5.40
2022-12-23T06:32:49.037Z,5.40
2022-12-23T06:37:53.528Z,5.40
2022-12-23T06:42:56.017Z,5.30
2022-12-23T06:47:58.573Z,5.40
2022-12-23T06:53:01.018Z,5.50
2022-12-23T06:58:03.634Z,5.50
2022-12-23T07:03:06.336Z,5.50
2022-12-23T07:08:09.135Z,5.60
2022-12-23T07:13:12.149Z,5.60
2022-12-23T07:18:14.665Z,5.70
2022-12-23T07:23:17.387Z,5.60
2022-12-23T07:28:19.852Z,5.60
2022-12-23T07:33:22.348Z,5.60
2022-12-23T07:38:24.862Z,5.70
2022-12-23T07:43:27.355Z,5.70
2022-12-23T07:48:29.803Z,5.70
2022-12-23T07:53:32.398Z,5.70
2022-12-23T07:58:35.009Z,5.80
2022-12-23T08:03:37.697Z,5.80
2022-12-23T08:08:42.033Z,5.80
2022-12-23T08:13:45.398Z,5.80
2022-12-23T08:18:48.020Z,5.90
2022-12-23T08:23:51.951Z,5.90
2022-12-23T08:28:56.124Z,6.00
2022-12-23T08:34:00.280Z,6.00
2022-12-23T08:39:08.605Z,5.90
2022-12-23T08:44:11.919Z,5.90
2022-12-23T08:49:14.816Z,6.00
2022-12-23T08:54:19.742Z,6.00
2022-12-23T08:59:22.292Z,6.00
2022-12-23T09:04:25.004Z,6.00
2022-12-23T09:09:28.622Z,6.00
2022-12-23T09:14:32.135Z,5.90
2022-12-23T09:19:34.813Z,6.00
2022-12-23T09:24:38.253Z,6.10
2022-12-23T09:29:40.892Z,6.10
2022-12-23T09:34:43.511Z,6.20
2022-12-23T09:39:46.328Z,6.30
2022-12-23T09:45:13.804Z,6.50
2022-12-23T09:50:30.356Z,6.50
2022-12-23T09:55:42.579Z,6.50
2022-12-23T10:01:00.561Z,6.60
2022-12-23T10:06:11.592Z,6.80
2022-12-23T10:11:31.856Z,7.00
2022-12-23T10:16:44.827Z,7.10
2022-12-23T10:22:00.012Z,7.10
2022-12-23T10:27:32.798Z,7.30
2022-12-23T10:32:38.147Z,7.30
2022-12-23T10:38:03.141Z,7.30
2022-12-23T10:43:32.162Z,7.30
2022-12-23T10:48:49.457Z,7.20
2022-12-23T10:54:00.363Z,7.10
2022-12-23T10:59:15.706Z,7.00
2022-12-23T11:04:20.265Z,7.00
2022-12-23T11:09:25.647Z,7.10
2022-12-23T11:14:38.712Z,7.10
2022-12-23T11:19:41.398Z,7.00
2022-12-23T11:24:43.836Z,6.90
2022-12-23T11:29:53.882Z,6.90
2022-12-23T11:34:56.723Z,7.00
2022-12-23T11:39:59.459Z,7.00
2022-12-23T11:45:06.620Z,6.90
2022-12-23T11:50:31.793Z,6.90
2022-12-23T11:55:34.653Z,6.80
2022-12-23T12:00:41.704Z,6.80
2022-12-23T12:05:51.461Z,6.90
2022-12-23T12:11:02.465Z,6.90
2022-12-23T12:16:28.704Z,6.90
2022-12-23T12:21:35.191Z,7.00
2022-12-23T12:26:38.395Z,6.90
2022-12-23T12:31:53.523Z,6.90
2022-12-23T12:37:24.252Z,6.80
2022-12-23T12:42:40.528Z,7.00
2022-12-23T12:48:16.012Z,7.10
2022-12-23T12:53:23.609Z,7.20
2022-12-23T12:58:26.604Z,7.20
2022-12-23T13:03:53.656Z,7.20
2022-12-23T13:08:56.167Z,7.20
2022-12-23T13:14:01.755Z,7.20
2022-12-23T13:19:13.613Z,7.20
2022-12-23T13:24:16.039Z,7.30
2022-12-23T13:30:06.893Z,7.30
2022-12-23T13:35:24.447Z,7.40
2022-12-23T13:40:35.475Z,7.40
2022-12-23T13:45:40.061Z,7.40
2022-12-23T13:50:55.239Z,7.40
2022-12-23T13:56:03.705Z,7.40
2022-12-23T14:01:08.972Z,7.60
2022-12-23T14:06:23.823Z,7.60
2022-12-23T14:11:28.900Z,7.70
2022-12-23T14:16:54.704Z,7.70
2022-12-23T14:22:03.232Z,7.60
2022-12-23T14:27:20.678Z,7.70
2022-12-23T14:32:29.173Z,7.70
2022-12-23T14:37:33.703Z,7.60
2022-12-23T14:42:41.508Z,7.60
2022-12-23T14:47:46.502Z,7.60
2022-12-23T14:52:58.757Z,7.60
2022-12-23T14:58:07.721Z,7.60
2022-12-23T15:03:12.224Z,7.60
2022-12-23T15:08:36.909Z,7.70
2022-12-23T15:13:39.873Z,7.80
2022-12-23T15:18:57.131Z,7.90
2022-12-23T15:24:00.226Z,7.90
2022-12-23T15:29:02.827Z,8.00
2022-12-23T15:34:16.893Z,8.00
2022-12-23T15:39:27.901Z,8.00
2022-12-23T15:44:39.913Z,8.00
2022-12-23T15:49:42.456Z,8.00
2022-12-23T15:54:57.923Z,8.00
2022-12-23T16:00:00.705Z,8.00
2022-12-23T16:05:05.322Z,8.10
2022-12-23T16:10:25.259Z,8.10
2022-12-23T16:15:31.167Z,8.10
2022-12-23T16:20:42.978Z,8.20
2022-12-23T16:25:51.885Z,8.20
2022-12-23T16:30:57.112Z,8.20
2022-12-23T16:36:23.663Z,8.20
2022-12-23T16:41:26.677Z,8.20
2022-12-23T16:46:34.218Z,8.20
2022-12-23T16:51:38.458Z,8.20
2022-12-23T16:56:41.554Z,8.10
2022-12-23T17:01:47.364Z,8.10
2022-12-23T17:06:50.028Z,8.10
2022-12-23T17:11:56.403Z,8.10
2022-12-23T17:16:58.997Z,8.00
2022-12-23T17:22:03.112Z,7.90
2022-12-23T17:27:15.408Z,7.90
2022-12-23T17:32:20.520Z,7.90
2022-12-23T17:37:23.227Z,7.80
2022-12-23T17:42:26.273Z,7.80
2022-12-23T17:47:28.995Z,7.70
2022-12-23T17:52:31.571Z,7.70
2022-12-23T17:57:34.167Z,7.70
2022-12-23T18:02:38.129Z,7.50
2022-12-23T18:07:40.750Z,7.30
2022-12-23T18:12:46.512Z,7.20
2022-12-23T18:17:49.914Z,7.20
2022-12-23T18:22:54.688Z,7.30
2022-12-23T18:27:57.430Z,7.30
2022-12-23T18:32:59.984Z,7.30
2022-12-23T18:38:02.627Z,7.30
2022-12-23T18:43:05.467Z,7.20
2022-12-23T18:48:09.406Z,7.10
2022-12-23T18:53:24.729Z,7.00
2022-12-23T18:58:27.870Z,7.00
2022-12-23T19:03:31.575Z,6.90
2022-12-23T19:08:36.185Z,6.80
2022-12-23T19:13:38.825Z,6.70
2022-12-23T19:18:41.404Z,6.70
2022-12-23T19:23:44.446Z,6.70
2022-12-23T19:28:48.656Z,6.60
2022-12-23T19:33:51.174Z,6.60
2022-12-23T19:38:55.680Z,6.70
2022-12-23T19:43:58.268Z,6.70
2022-12-23T19:49:00.775Z,6.70
2022-12-23T19:54:03.509Z,6.60
2022-12-23T19:59:06.052Z,6.50
2022-12-23T20:04:09.530Z,6.40
2022-12-23T20:09:13.440Z,6.50
2022-12-23T20:14:18.996Z,6.60
2022-12-23T20:19:22.495Z,6.50
2022-12-23T20:24:25.210Z,6.50
2022-12-23T20:29:28.843Z,6.50
2022-12-23T20:34:38.384Z,6.40
2022-12-23T20:39:42.145Z,6.30
2022-12-23T20:44:44.667Z,6.20
2022-12-23T20:49:47.242Z,6.30
2022-12-23T20:54:49.718Z,6.10
2022-12-23T20:59:52.167Z,6.30
2022-12-23T21:04:54.789Z,6.20
2022-12-23T21:09:57.302Z,6.10
2022-12-23T21:14:59.871Z,6.00
2022-12-23T21:20:07.795Z,5.90
2022-12-23T21:25:10.881Z,5.90
2022-12-23T21:30:13.679Z,5.80
2022-12-23T21:35:19.075Z,5.70
2022-12-23T21:40:21.591Z,5.60
2022-12-23T21:45:24.234Z,5.60
2022-12-23T21:50:26.869Z,5.60
2022-12-23T21:55:29.487Z,5.70
2022-12-23T22:00:31.975Z,5.80
2022-12-23T22:05:34.516Z,5.80
2022-12-23T22:10:38.398Z,5.80
2022-12-23T22:15:42.491Z,5.80
2022-12-23T22:20:46.623Z,5.90
2022-12-23T22:25:55.762Z,5.90
2022-12-23T22:31:07.067Z,5.90
2022-12-23T22:36:14.283Z,5.90
2022-12-23T22:41:16.830Z,5.70
2022-12-23T22:46:19.529Z,5.40
2022-12-23T22:51:28.135Z,5.30
2022-12-23T22:56:30.712Z,5.40
2022-12-23T23:01:35.462Z,5.60
2022-12-23T23:06:39.018Z,5.70
2022-12-23T23:11:43.272Z,5.90
2022-12-23T23:16:45.822Z,6.00
2022-12-23T23:21:48.886Z,5.90
2022-12-23T23:26:51.526Z,5.80
2022-12-23T23:31:54.019Z,5.90
2022-12-23T23:36:56.792Z,5.90
2022-12-23T23:41:59.257Z,6.10
2022-12-23T23:47:01.771Z,6.10
2022-12-23T23:52:04.660Z,6.20
2022-12-23T23:57:07.086Z,6.20
